Relevés horaires Pilatus (Suisse)


Relevés horaires à Pilatus - Vendredi 25 Févr. 2005
Heure UTC1 Température [°C] Vent [km/h] Hum. [%] Pres.4 [hPa] Visi. [Km] Nébu. [octa] Préc.5 [mm] Cond.
2m. Res. Ros. Dir.2 Vit. Moy. Raf.3
23:00 -11.6 -20.3 -17.3 SO 22.2 -- -- 62 850 -- -- -- --
22:00 -12.9 -22 -16.6 SO 22.2 -- -- 74 850 -- -- -- --
21:00 -11.7 -20.4 -16.9 SSO 22.2 -- -- 65 850 -- -- -- --
20:00 -11.9 -20.7 -16.4 SSO 22.2 -- -- 69 850 -- -- -- --
19:00 -11.4 -20.4 -15.3 SSO 24.1 -- -- 73 850 -- -- -- --
18:00 -11.4 -19.7 -15.4 SSO 20.4 -- -- 72 850(0.5/3h) -- -- 0.2/12h
--
17:00 -11.2 -20.1 -14.6 S 24.1 -- -- 76 850 -- -- -- --
16:00 -11.4 -20.4 -12.8 SSE 24.1 -- -- 89 850 -- -- -- --
15:00 -11.8 -20.2 -13.2 ENE 20.4 -- -- 89 850 -- -- -- --
14:00 -9.2 -17.3 -11.8 E 22.2 -- -- 81 850 -- -- -- --
13:00 -9.9 -18.2 -12.4 ENE 22.2 -- -- 82 850 -- -- -- --
12:00 -9.9 -18.5 -12.5 ENE 24.1 -- -- 81 850(0.4/3h) -- -- -- --
11:00 -11.5 -20.5 -14.9 E 24.1 -- -- 76 850 -- -- -- --
10:00 -12.1 -20.2 -14.1 NE 18.5 -- -- 85 850 -- -- -- --
09:00 -12.1 -20.2 -14.4 N 18.5 -- -- 83 850 -- -- -- --
08:00 -12.9 -21.2 -14.6 ENE 18.5 -- -- 87 850 -- -- -- --
07:00 -13.5 -23.1 -15.7 E 24.1 -- -- 83 850 -- -- -- --
06:00 -14.1 -23.5 -16.1 E 22.2 -- -- 85 850(-0.4/3h) -- -- 0.1/12h
--
05:00 -14.0 -22.6 -15.7 E 18.5 -- -- 87 850 -- -- -- --
04:00 -14.2 -23.6 -15.9 NNO 22.2 -- -- 87 850 -- -- -- --
03:00 -14.8 -25.4 -16.5 N 27.8 -- -- 87 850 -- -- -- --
02:00 -14.8 -25.4 -16.5 N 27.8 -- -- 87 850 -- -- -- --
01:00 -14.8 -25.4 -16.5 NNO 27.8 -- -- 87 850 -- -- -- --
00:00 -14.8 -25.1 -16.5 NNO 25.9 -- -- 87 850 -- -- 0/0h
--

1 Coordinated Universal Time. Actuellement il est 22:00 locale et 20:00 UTC.

2 Le vent souffle depuis la direction indiquée vers la direction oposée.

3 Les rafales max. sont disponible 40 min après l'heure du relevé.

4 Pour les stations d'altitude (plus de 600m) le géopotentiel du niveau le plus proche de la pression obligatoire est indiqué.

5 Les stations disposant d'un diffuseur peuvent indiquer "trace". Cela signifie que des précipitations ont touchés le sol mais que la quantité est inférieure à 0.1 mm.

Copyright

Les données affichées sur cette page sont la propriété exclusive de Météo Suisse.

Récapitulatif de la journée
Température [°C] Vent [km/h] Ensoleillement4 [h] Precipitations totale5 [mm] Pression [Hpa]
Min1 Max.2 Moy.3 Max. Min Max.
-15.3 -8.6 0 -- 9 h 6 min 0.2 850.0 850.0

1 Température minimale relevée entre 18:00 UTC la veille et 18:00 UTC le jour donné.

2 Température maximale relevée entre 06:00 UTC le jour donné et 06:00 UTC le lendemain.

3 Vent moyen de la journée basé sur les relevés horaires.

4 Ensoleillement en heures relevé entre 06:00 UTC la veille et 06:00 UTC le jour donné.

5 Précipitations totales tombées entre 06:00 UTC la jour donné et 06:00 UTC le lendemain.

Graphiques horaires